Time;durP1;ratioP1;P1;durP2;ratioP2;P2;SDS_P1;SDS_P2;PMS_P1;PMS_P2;Temp;Humidity;BMP_temperature;BMP_pressure;BME280_temperature;BME280_humidity;BME280_pressure;Samples;Min_cycle;Max_cycle;Signal;HPM_P1;HPM_P2
2023/07/07 00:01:15;;;;;;;;;;;;;;;15.68;55.67676;102010.9;;;;-71
2023/07/07 00:06:15;;;;;;;;;;;;;;;15.58;55.93457;102012.3;;;;-70
2023/07/07 00:11:15;;;;;;;;;;;;;;;15.53;56.56055;102011.6;;;;-69
2023/07/07 00:16:15;;;;;;;;;;;;;;;15.49;56.44238;102011.1;;;;-70
2023/07/07 00:21:15;;;;;;;;;;;;;;;15.43;56.28809;101999.8;;;;-70
2023/07/07 00:24:38;;;;;;;0.2;0.1;;;;;;;;;;;;;-68
2023/07/07 00:26:15;;;;;;;;;;;;;;;15.41;56.08301;101996.8;;;;-74
2023/07/07 00:31:15;;;;;;;;;;;;;;;15.37;56.35938;101996.5;;;;-70
2023/07/07 00:36:15;;;;;;;;;;;;;;;15.28;56.31348;101996.5;;;;-69
2023/07/07 00:41:16;;;;;;;;;;;;;;;15.25;56.26563;101993.5;;;;-70
2023/07/07 00:46:15;;;;;;;;;;;;;;;15.17;56.1084;101992;;;;-70
2023/07/07 00:51:18;;;;;;;;;;;;;;;15.11;56.22559;101988.9;;;;-70
2023/07/07 00:54:41;;;;;;;0.2;0.1;;;;;;;;;;;;;-70
2023/07/07 00:56:17;;;;;;;;;;;;;;;15.08;56.13086;101991;;;;-71
2023/07/07 01:01:17;;;;;;;;;;;;;;;15;56.14355;101996.7;;;;-69
2023/07/07 01:06:16;;;;;;;;;;;;;;;14.96;56.20703;101990.6;;;;-70
2023/07/07 01:11:15;;;;;;;;;;;;;;;14.89;56.37793;101984.4;;;;-69
2023/07/07 01:16:19;;;;;;;;;;;;;;;14.88;56.33008;101982.6;;;;-70
2023/07/07 01:21:20;;;;;;;;;;;;;;;14.77;56.48633;101980.9;;;;-68
2023/07/07 01:24:52;;;;;;;0.2;0;;;;;;;;;;;;;-69
2023/07/07 01:26:41;;;;;;;;;;;;;;;14.7;56.55469;101984.6;;;;-69
2023/07/07 01:31:17;;;;;;;;;;;;;;;14.63;56.34375;101987.8;;;;-72
2023/07/07 01:36:15;;;;;;;;;;;;;;;14.57;56.58301;101987.1;;;;-70
2023/07/07 01:41:19;;;;;;;;;;;;;;;14.55;56.50195;101989;;;;-69
2023/07/07 01:46:19;;;;;;;;;;;;;;;14.39;56.66113;101990.3;;;;-68
2023/07/07 01:51:16;;;;;;;;;;;;;;;14.31;56.78516;101986.8;;;;-70
2023/07/07 01:54:48;;;;;;;0.3;0.1;;;;;;;;;;;;;-69
2023/07/07 01:56:16;;;;;;;;;;;;;;;14.25;56.86914;101987.9;;;;-70
2023/07/07 02:01:15;;;;;;;;;;;;;;;14.21;56.86328;101984.2;;;;-69
2023/07/07 02:06:15;;;;;;;;;;;;;;;14.2;56.82813;101980.6;;;;-69
2023/07/07 02:11:15;;;;;;;;;;;;;;;14.11;56.80566;101976.6;;;;-68
2023/07/07 02:16:15;;;;;;;;;;;;;;;14.08;56.85742;101976.5;;;;-69
2023/07/07 02:21:15;;;;;;;;;;;;;;;14.08;56.91406;101976.5;;;;-69
2023/07/07 02:24:47;;;;;;;0.2;0.1;;;;;;;;;;;;;-70
2023/07/07 02:26:18;;;;;;;;;;;;;;;14.03;56.68262;101985.8;;;;-70
2023/07/07 02:31:15;;;;;;;;;;;;;;;13.96;57.02246;101986.7;;;;-69
2023/07/07 02:36:15;;;;;;;;;;;;;;;13.98;56.74414;101989;;;;-69
2023/07/07 02:41:15;;;;;;;;;;;;;;;13.9;56.95703;101994.1;;;;-70
2023/07/07 02:46:15;;;;;;;;;;;;;;;13.88;57.02148;101993.1;;;;-71
2023/07/07 02:51:15;;;;;;;;;;;;;;;13.81;57.20508;101996;;;;-70
2023/07/07 02:54:50;;;;;;;0.2;0.1;;;;;;;;;;;;;-69
2023/07/07 02:56:15;;;;;;;;;;;;;;;13.82;56.94727;101997.8;;;;-71
2023/07/07 03:01:16;;;;;;;;;;;;;;;13.8;57.02344;101995.7;;;;-69
2023/07/07 03:06:16;;;;;;;;;;;;;;;13.82;56.98047;101991.8;;;;-69
2023/07/07 03:11:16;;;;;;;;;;;;;;;13.76;57.31055;101991.3;;;;-71
2023/07/07 03:16:20;;;;;;;;;;;;;;;13.79;57.42578;101998;;;;-71
2023/07/07 03:21:15;;;;;;;;;;;;;;;13.78;57.81836;101992.3;;;;-69
2023/07/07 03:24:53;;;;;;;0.2;0.1;;;;;;;;;;;;;-69
2023/07/07 03:26:16;;;;;;;;;;;;;;;13.79;57.96484;101985.7;;;;-69
2023/07/07 03:31:17;;;;;;;;;;;;;;;13.78;58.13086;101987.7;;;;-70
2023/07/07 03:36:16;;;;;;;;;;;;;;;13.77;58.59082;101989.1;;;;-70
2023/07/07 03:41:18;;;;;;;;;;;;;;;13.8;58.49316;101988.4;;;;-70
2023/07/07 03:46:15;;;;;;;;;;;;;;;13.82;58.98926;101992.7;;;;-70
2023/07/07 03:51:15;;;;;;;;;;;;;;;13.84;59.10449;101996;;;;-70
2023/07/07 03:54:54;;;;;;;0.2;0.1;;;;;;;;;;;;;-72
2023/07/07 03:56:15;;;;;;;;;;;;;;;13.88;59.2666;101991.1;;;;-70
2023/07/07 04:01:16;;;;;;;;;;;;;;;13.87;59.87109;102000.3;;;;-70
2023/07/07 04:06:15;;;;;;;;;;;;;;;13.89;60.08789;102003.4;;;;-69
2023/07/07 04:11:16;;;;;;;;;;;;;;;13.91;59.90039;102004.3;;;;-71
2023/07/07 04:16:18;;;;;;;;;;;;;;;13.94;60.07227;102000;;;;-70
2023/07/07 04:21:16;;;;;;;;;;;;;;;13.97;60.2002;102004.3;;;;-70
2023/07/07 04:25:07;;;;;;;0.2;0.1;;;;;;;;;;;;;-71
2023/07/07 04:26:15;;;;;;;;;;;;;;;13.99;60.24707;102002.8;;;;-69
2023/07/07 04:31:16;;;;;;;;;;;;;;;14.03;60.73438;102005.9;;;;-71
2023/07/07 04:36:15;;;;;;;;;;;;;;;14.06;60.60352;102004.5;;;;-69
2023/07/07 04:41:16;;;;;;;;;;;;;;;14.07;60.87598;102006.8;;;;-71
2023/07/07 04:46:16;;;;;;;;;;;;;;;14.11;60.83594;102007.8;;;;-70
2023/07/07 04:51:15;;;;;;;;;;;;;;;14.15;60.71777;102009.4;;;;-69
2023/07/07 04:54:58;;;;;;;0.2;0.1;;;;;;;;;;;;;-70
2023/07/07 04:56:16;;;;;;;;;;;;;;;14.21;60.92773;102014.9;;;;-69
2023/07/07 05:01:16;;;;;;;;;;;;;;;14.26;61.14746;102011.3;;;;-71
2023/07/07 05:06:15;;;;;;;;;;;;;;;14.33;61.56152;102016.7;;;;-69
2023/07/07 05:11:16;;;;;;;;;;;;;;;14.38;61.50195;102012.2;;;;-69
2023/07/07 05:16:16;;;;;;;;;;;;;;;14.45;62.35254;102017.9;;;;-69
2023/07/07 05:21:16;;;;;;;;;;;;;;;14.56;62.51465;102013.4;;;;-70
2023/07/07 05:25:00;;;;;;;0.2;0.1;;;;;;;;;;;;;-69
2023/07/07 05:26:15;;;;;;;;;;;;;;;14.71;62.49023;102021.2;;;;-71
2023/07/07 05:31:15;;;;;;;;;;;;;;;15.1;64.17676;102020.2;;;;-69
2023/07/07 05:36:15;;;;;;;;;;;;;;;15.84;60.77051;102017.2;;;;-69
2023/07/07 05:41:15;;;;;;;;;;;;;;;16.62;59.77246;102022;;;;-69
2023/07/07 05:46:16;;;;;;;;;;;;;;;17.29;58.24512;102026.3;;;;-70
2023/07/07 05:51:16;;;;;;;;;;;;;;;17.87;57.41602;102019.4;;;;-69
2023/07/07 05:55:04;;;;;;;0.2;0.1;;;;;;;;;;;;;-69
2023/07/07 05:56:16;;;;;;;;;;;;;;;18.41;56.50977;102024.5;;;;-68
2023/07/07 06:01:15;;;;;;;;;;;;;;;19.01;55.73242;102019.2;;;;-71
2023/07/07 06:06:15;;;;;;;;;;;;;;;19.53;55.03613;102021.7;;;;-70
2023/07/07 06:11:15;;;;;;;;;;;;;;;19.97;54.3623;102029.7;;;;-70
2023/07/07 06:16:15;;;;;;;;;;;;;;;20.43;53.58594;102026.9;;;;-70
2023/07/07 06:21:15;;;;;;;;;;;;;;;20.9;53.11719;102038.9;;;;-70
2023/07/07 06:25:08;;;;;;;0.3;0.2;;;;;;;;;;;;;-73
2023/07/07 06:26:15;;;;;;;;;;;;;;;21.32;52.57227;102039.5;;;;-69
2023/07/07 06:31:15;;;;;;;;;;;;;;;21.78;51.51563;102035.8;;;;-71
2023/07/07 06:36:15;;;;;;;;;;;;;;;22.06;51.1582;102037.2;;;;-70
2023/07/07 06:41:16;;;;;;;;;;;;;;;22.47;50.58594;102045;;;;-70
2023/07/07 06:46:17;;;;;;;;;;;;;;;22.83;49.9502;102047.4;;;;-71
2023/07/07 06:51:15;;;;;;;;;;;;;;;22.94;49.58301;102051.2;;;;-72
2023/07/07 06:55:09;;;;;;;0.4;0.3;;;;;;;;;;;;;-70
2023/07/07 06:56:15;;;;;;;;;;;;;;;23.16;48.99805;102055.8;;;;-69
2023/07/07 07:01:16;;;;;;;;;;;;;;;23.4;48.62305;102052.3;;;;-71
2023/07/07 07:06:16;;;;;;;;;;;;;;;23.66;48.13281;102057.4;;;;-70
2023/07/07 07:11:16;;;;;;;;;;;;;;;24.05;47.45898;102057.1;;;;-71
2023/07/07 07:16:15;;;;;;;;;;;;;;;24.29;47.07031;102061.9;;;;-70
2023/07/07 07:21:15;;;;;;;;;;;;;;;24.35;46.47852;102065.2;;;;-74
2023/07/07 07:25:14;;;;;;;0.2;0.1;;;;;;;;;;;;;-72
2023/07/07 07:26:15;;;;;;;;;;;;;;;24.49;46.22559;102059.6;;;;-73
2023/07/07 07:31:15;;;;;;;;;;;;;;;24.87;45.5957;102062.8;;;;-73
2023/07/07 07:36:15;;;;;;;;;;;;;;;24.95;45.29297;102061.2;;;;-72
2023/07/07 07:41:17;;;;;;;;;;;;;;;25.23;45.45801;102074.7;;;;-72
2023/07/07 07:46:15;;;;;;;;;;;;;;;25.28;44.43457;102072.8;;;;-73
2023/07/07 07:51:15;;;;;;;;;;;;;;;25.37;44.47852;102073.4;;;;-71
2023/07/07 07:55:18;;;;;;;0.2;0;;;;;;;;;;;;;-72
2023/07/07 07:56:15;;;;;;;;;;;;;;;25.62;44.23633;102073.5;;;;-72
2023/07/07 08:01:15;;;;;;;;;;;;;;;25.68;44.13867;102074.6;;;;-72
2023/07/07 08:06:15;;;;;;;;;;;;;;;25.77;43.76465;102077.9;;;;-73
2023/07/07 08:11:17;;;;;;;;;;;;;;;25.83;43.8291;102079.8;;;;-72
2023/07/07 08:16:15;;;;;;;;;;;;;;;25.9;43.00293;102074.1;;;;-71
2023/07/07 08:21:15;;;;;;;;;;;;;;;26.07;43.18066;102081.5;;;;-73
2023/07/07 08:25:20;;;;;;;0.2;0;;;;;;;;;;;;;-72
2023/07/07 08:26:15;;;;;;;;;;;;;;;26.18;42.66895;102078.9;;;;-76
2023/07/07 08:31:15;;;;;;;;;;;;;;;26.39;42.52637;102084.6;;;;-73
2023/07/07 08:36:15;;;;;;;;;;;;;;;26.48;42.03613;102081.1;;;;-72
2023/07/07 08:41:15;;;;;;;;;;;;;;;26.6;41.60645;102085.7;;;;-72
2023/07/07 08:46:21;;;;;;;;;;;;;;;26.64;41.2627;102089.9;;;;-72
2023/07/07 08:51:19;;;;;;;;;;;;;;;26.9;41.11133;102095.2;;;;-72
2023/07/07 08:55:34;;;;;;;0.2;0;;;;;;;;;;;;;-74
2023/07/07 08:56:20;;;;;;;;;;;;;;;27.05;40.43945;102095.1;;;;-75
2023/07/07 09:01:23;;;;;;;;;;;;;;;27.23;40.37402;102094.5;;;;-73
2023/07/07 09:06:25;;;;;;;;;;;;;;;27.44;39.40332;102092.8;;;;-73
2023/07/07 09:11:19;;;;;;;;;;;;;;;27.65;39.41113;102088.5;;;;-72
2023/07/07 09:16:21;;;;;;;;;;;;;;;27.75;38.82617;102086.3;;;;-72
2023/07/07 09:21:21;;;;;;;;;;;;;;;27.9;38.74512;102087.6;;;;-73
2023/07/07 09:25:32;;;;;;;0.3;0.1;;;;;;;;;;;;;-73
2023/07/07 09:26:19;;;;;;;;;;;;;;;28.24;38.16797;102088.4;;;;-72
2023/07/07 09:31:23;;;;;;;;;;;;;;;28.38;38.00488;102091.9;;;;-73
2023/07/07 09:36:19;;;;;;;;;;;;;;;28.6;38.01074;102088.4;;;;-72
2023/07/07 09:41:19;;;;;;;;;;;;;;;28.85;37.21484;102092.1;;;;-71
2023/07/07 09:46:20;;;;;;;;;;;;;;;29.11;37.41211;102093.9;;;;-71
2023/07/07 09:51:18;;;;;;;;;;;;;;;29.36;36.94141;102095.5;;;;-72
2023/07/07 09:55:38;;;;;;;0.2;0;;;;;;;;;;;;;-72
2023/07/07 09:56:19;;;;;;;;;;;;;;;29.53;36.82617;102094.1;;;;-72
2023/07/07 10:01:16;;;;;;;;;;;;;;;29.7;36.59473;102088;;;;-72
2023/07/07 10:06:16;;;;;;;;;;;;;;;29.79;35.92188;102092.8;;;;-73
2023/07/07 10:11:21;;;;;;;;;;;;;;;29.81;35.12793;102094.8;;;;-71
2023/07/07 10:16:22;;;;;;;;;;;;;;;29.9;35.4043;102089.2;;;;-71
2023/07/07 10:21:16;;;;;;;;;;;;;;;30.18;35.25;102084.5;;;;-70
2023/07/07 10:25:40;;;;;;;0.2;0;;;;;;;;;;;;;-72
2023/07/07 10:26:15;;;;;;;;;;;;;;;30.39;34.84375;102085.3;;;;-73
2023/07/07 10:31:16;;;;;;;;;;;;;;;30.48;35.23828;102087.5;;;;-73
2023/07/07 10:36:33;;;;;;;;;;;;;;;30.53;33.91602;102083.9;;;;-72
2023/07/07 10:41:15;;;;;;;;;;;;;;;30.59;34.67188;102088.2;;;;-71
2023/07/07 10:46:17;;;;;;;;;;;;;;;30.8;35.79102;102089.3;;;;-74
2023/07/07 10:51:20;;;;;;;;;;;;;;;30.94;34.63965;102086.1;;;;-72
2023/07/07 10:55:54;;;;;;;0.1;0;;;;;;;;;;;;;-71
2023/07/07 10:56:21;;;;;;;;;;;;;;;31.05;35.59961;102077.6;;;;-73
2023/07/07 11:01:20;;;;;;;;;;;;;;;31.33;34.58691;102074.6;;;;-72
2023/07/07 11:06:20;;;;;;;;;;;;;;;31.37;34.60156;102074.8;;;;-72
2023/07/07 11:11:26;;;;;;;;;;;;;;;31.59;35.47656;102074.6;;;;-73
2023/07/07 11:16:21;;;;;;;;;;;;;;;31.68;35.90723;102076.7;;;;-71
2023/07/07 11:21:20;;;;;;;;;;;;;;;31.75;35.73633;102073.7;;;;-72
2023/07/07 11:25:57;;;;;;;0.1;0;;;;;;;;;;;;;-71
2023/07/07 11:26:20;;;;;;;;;;;;;;;31.96;34.98828;102071.4;;;;-73
2023/07/07 11:31:25;;;;;;;;;;;;;;;32.03;35.3584;102069.8;;;;-72
2023/07/07 11:36:24;;;;;;;;;;;;;;;32.17;36.75684;102069.5;;;;-73
2023/07/07 11:41:22;;;;;;;;;;;;;;;32.45;36.36816;102064.6;;;;-73
2023/07/07 11:46:28;;;;;;;;;;;;;;;32.7;36.35352;102069.7;;;;-72
2023/07/07 11:51:22;;;;;;;;;;;;;;;32.73;35.4834;102067;;;;-73
2023/07/07 11:56:05;;;;;;;0.2;0.1;;;;;;;;;;;;;-72
2023/07/07 11:56:20;;;;;;;;;;;;;;;32.94;34.89746;102065.6;;;;-71
2023/07/07 12:01:18;;;;;;;;;;;;;;;33.06;35.67383;102063;;;;-72
2023/07/07 12:06:20;;;;;;;;;;;;;;;33.18;35.71875;102060.1;;;;-73
2023/07/07 12:11:17;;;;;;;;;;;;;;;33.35;35.76758;102060.5;;;;-73
2023/07/07 12:16:19;;;;;;;;;;;;;;;33.4;34.96875;102063.8;;;;-72
2023/07/07 12:21:17;;;;;;;;;;;;;;;33.45;35.62207;102062.2;;;;-72
2023/07/07 12:26:10;;;;;;;0.1;0;;;;;;;;;;;;;-73
2023/07/07 12:26:21;;;;;;;;;;;;;;;33.52;36.5127;102057.5;;;;-70
2023/07/07 12:31:15;;;;;;;;;;;;;;;33.67;35.36719;102050.8;;;;-71
2023/07/07 12:36:18;;;;;;;;;;;;;;;33.7;35.0625;102045.4;;;;-72
2023/07/07 12:41:21;;;;;;;;;;;;;;;33.71;35.75977;102046.1;;;;-75
2023/07/07 12:46:22;;;;;;;;;;;;;;;33.93;36.46289;102042.2;;;;-72
2023/07/07 12:51:15;;;;;;;;;;;;;;;34.01;35.00293;102035.9;;;;-73
2023/07/07 12:56:16;;;;;;;0.2;0;;;;;;;;;;;;;-73
2023/07/07 12:56:27;;;;;;;;;;;;;;;34.15;35.31055;102032.7;;;;-73
2023/07/07 13:01:28;;;;;;;;;;;;;;;34.19;35.68066;102035.6;;;;-71
2023/07/07 13:06:28;;;;;;;;;;;;;;;34.33;35.25293;102038.3;;;;-72
2023/07/07 13:11:16;;;;;;;;;;;;;;;34.44;34.27832;102039.9;;;;-72
2023/07/07 13:16:16;;;;;;;;;;;;;;;34.45;34.20801;102038.5;;;;-75
2023/07/07 13:21:16;;;;;;;;;;;;;;;34.5;34.1416;102030.1;;;;-72
2023/07/07 13:26:24;;;;;;;;;;;;;;;34.56;34.25195;102031.9;;;;-72
2023/07/07 13:26:34;;;;;;;0.1;0;;;;;;;;;;;;;-72
2023/07/07 13:31:17;;;;;;;;;;;;;;;34.64;33.70215;102035.3;;;;-73
2023/07/07 13:36:15;;;;;;;;;;;;;;;34.77;35.10938;102035.6;;;;-73
2023/07/07 13:41:17;;;;;;;;;;;;;;;34.78;33.59375;102031;;;;-72
2023/07/07 13:46:19;;;;;;;;;;;;;;;34.84;35.38672;102019.2;;;;-74
2023/07/07 13:51:19;;;;;;;;;;;;;;;34.98;34.5791;102026.3;;;;-70
2023/07/07 13:56:15;;;;;;;;;;;;;;;35.19;34.18066;102022.9;;;;-69
2023/07/07 13:56:31;;;;;;;0.2;0;;;;;;;;;;;;;-69
2023/07/07 14:01:22;;;;;;;;;;;;;;;35.34;33.30273;102018;;;;-70
2023/07/07 14:06:17;;;;;;;;;;;;;;;35.34;33.77734;102017.1;;;;-71
2023/07/07 14:11:19;;;;;;;;;;;;;;;35.38;34.46777;102010.8;;;;-70
2023/07/07 14:16:18;;;;;;;;;;;;;;;35.67;33.14844;102010.1;;;;-69
2023/07/07 14:21:18;;;;;;;;;;;;;;;35.6;32.59668;102008.3;;;;-71
2023/07/07 14:26:20;;;;;;;;;;;;;;;35.57;32.29883;102005.4;;;;-71
2023/07/07 14:26:30;;;;;;;0.1;0;;;;;;;;;;;;;-69
2023/07/07 14:31:15;;;;;;;;;;;;;;;35.6;32.88184;102002.2;;;;-70
2023/07/07 14:36:25;;;;;;;;;;;;;;;35.66;33.24219;102001;;;;-71
2023/07/07 14:41:20;;;;;;;;;;;;;;;35.69;31.84375;101999.8;;;;-72
2023/07/07 14:46:23;;;;;;;;;;;;;;;35.63;32.55176;101994.2;;;;-71
2023/07/07 14:51:18;;;;;;;;;;;;;;;35.61;32.91895;101993.7;;;;-70
2023/07/07 14:56:31;;;;;;;;;;;;;;;35.63;32.19629;101987.4;;;;-70
2023/07/07 14:56:42;;;;;;;0.3;0.1;;;;;;;;;;;;;-70
2023/07/07 15:01:19;;;;;;;;;;;;;;;35.61;31.96973;101989.6;;;;-69
2023/07/07 15:06:24;;;;;;;;;;;;;;;35.58;31.77734;101981.5;;;;-71
2023/07/07 15:11:19;;;;;;;;;;;;;;;35.47;31.50781;101977.7;;;;-70
2023/07/07 15:16:16;;;;;;;;;;;;;;;35.33;32.37598;101974.7;;;;-69
2023/07/07 15:21:21;;;;;;;;;;;;;;;35.29;32.29102;101973.8;;;;-69
2023/07/07 15:26:20;;;;;;;;;;;;;;;35.26;30.44922;101976.6;;;;-69
2023/07/07 15:26:44;;;;;;;0.1;0;;;;;;;;;;;;;-69
2023/07/07 15:31:18;;;;;;;;;;;;;;;35.06;31.52734;101972.7;;;;-70
2023/07/07 15:36:16;;;;;;;;;;;;;;;34.99;31.59473;101966.8;;;;-70
2023/07/07 15:41:16;;;;;;;;;;;;;;;34.9;32.01465;101963.2;;;;-69
2023/07/07 15:46:16;;;;;;;;;;;;;;;34.86;32.15332;101961.3;;;;-70
2023/07/07 15:51:25;;;;;;;;;;;;;;;34.8;31.78223;101958.2;;;;-70
2023/07/07 15:56:16;;;;;;;;;;;;;;;34.74;30.87695;101961.3;;;;-71
2023/07/07 15:56:53;;;;;;;0.1;0;;;;;;;;;;;;;-70
2023/07/07 16:01:15;;;;;;;;;;;;;;;34.54;32.49902;101958.5;;;;-70
2023/07/07 16:06:15;;;;;;;;;;;;;;;34.37;32.49805;101966.3;;;;-72
2023/07/07 16:11:22;;;;;;;;;;;;;;;34.28;32.10059;101961.5;;;;-74
2023/07/07 16:16:16;;;;;;;;;;;;;;;34.2;32.16699;101959;;;;-71
2023/07/07 16:21:21;;;;;;;;;;;;;;;34.1;32.21875;101953;;;;-70
2023/07/07 16:26:17;;;;;;;;;;;;;;;33.89;32.19238;101950.8;;;;-69
2023/07/07 16:26:57;;;;;;;0.1;0;;;;;;;;;;;;;-70
2023/07/07 16:31:17;;;;;;;;;;;;;;;33.72;32.60547;101946.4;;;;-69
2023/07/07 16:36:21;;;;;;;;;;;;;;;33.61;32.57422;101947.7;;;;-70
2023/07/07 16:41:16;;;;;;;;;;;;;;;33.42;32.79785;101952.4;;;;-71
2023/07/07 16:46:17;;;;;;;;;;;;;;;33.27;32.68066;101953;;;;-69
2023/07/07 16:51:21;;;;;;;;;;;;;;;33.07;32.27637;101942.6;;;;-70
2023/07/07 16:56:21;;;;;;;;;;;;;;;32.91;32.68945;101945.5;;;;-69
2023/07/07 16:57:03;;;;;;;0.3;0.1;;;;;;;;;;;;;-68
2023/07/07 17:01:17;;;;;;;;;;;;;;;32.72;32.55859;101939.2;;;;-70
2023/07/07 17:06:20;;;;;;;;;;;;;;;32.5;33.06152;101934.7;;;;-70
2023/07/07 17:11:16;;;;;;;;;;;;;;;32.29;33.08105;101936.2;;;;-67
2023/07/07 17:16:21;;;;;;;;;;;;;;;32.04;33.60547;101928;;;;-70
2023/07/07 17:21:15;;;;;;;;;;;;;;;31.82;34.25977;101931.6;;;;-70
2023/07/07 17:26:20;;;;;;;;;;;;;;;31.61;34.58496;101928.8;;;;-70
2023/07/07 17:27:12;;;;;;;0.1;0;;;;;;;;;;;;;-70
2023/07/07 17:31:20;;;;;;;;;;;;;;;31.45;34.90234;101923.9;;;;-69
2023/07/07 17:36:20;;;;;;;;;;;;;;;31.27;35.31152;101913.6;;;;-70
2023/07/07 17:41:16;;;;;;;;;;;;;;;31.12;35.79297;101911.5;;;;-71
2023/07/07 17:46:31;;;;;;;;;;;;;;;30.99;36.05273;101909.6;;;;-71
2023/07/07 17:51:15;;;;;;;;;;;;;;;30.81;36.28516;101906.9;;;;-70
2023/07/07 17:56:17;;;;;;;;;;;;;;;30.6;36.67871;101899.1;;;;-70
2023/07/07 17:57:16;;;;;;;0.7;0.1;;;;;;;;;;;;;-71
2023/07/07 18:01:16;;;;;;;;;;;;;;;30.43;37.06348;101904.1;;;;-71
2023/07/07 18:06:20;;;;;;;;;;;;;;;30.24;37.15332;101898.2;;;;-70
2023/07/07 18:11:20;;;;;;;;;;;;;;;30.1;37.40039;101904.1;;;;-68
2023/07/07 18:16:18;;;;;;;;;;;;;;;29.97;37.81055;101899.3;;;;-70
2023/07/07 18:21:17;;;;;;;;;;;;;;;29.84;37.63574;101899.5;;;;-69
2023/07/07 18:26:19;;;;;;;;;;;;;;;29.7;37.36719;101899.8;;;;-71
2023/07/07 18:27:21;;;;;;;0.1;0;;;;;;;;;;;;;-70
2023/07/07 18:31:15;;;;;;;;;;;;;;;29.59;37.47461;101899.4;;;;-69
2023/07/07 18:36:16;;;;;;;;;;;;;;;29.53;36.5332;101898.5;;;;-69
2023/07/07 18:41:16;;;;;;;;;;;;;;;29.33;37.38184;101896.8;;;;-69
2023/07/07 18:46:17;;;;;;;;;;;;;;;29.17;37.5332;101897.4;;;;-69
2023/07/07 18:51:19;;;;;;;;;;;;;;;29.03;37.86035;101893.3;;;;-69
2023/07/07 18:56:25;;;;;;;;;;;;;;;28.91;36.85742;101893.8;;;;-70
2023/07/07 18:57:26;;;;;;;0.1;0;;;;;;;;;;;;;-70
2023/07/07 19:01:18;;;;;;;;;;;;;;;28.64;36.66113;101891.6;;;;-70
2023/07/07 19:06:18;;;;;;;;;;;;;;;28.39;36.95605;101892.3;;;;-70
2023/07/07 19:11:16;;;;;;;;;;;;;;;28.13;37.14453;101892.2;;;;-69
2023/07/07 19:16:25;;;;;;;;;;;;;;;27.88;37.49707;101898.1;;;;-70
2023/07/07 19:21:17;;;;;;;;;;;;;;;27.63;37.75488;101895.6;;;;-71
2023/07/07 19:26:19;;;;;;;;;;;;;;;27.38;38.2002;101900.9;;;;-69
2023/07/07 19:27:31;;;;;;;0.2;0;;;;;;;;;;;;;-70
2023/07/07 19:31:16;;;;;;;;;;;;;;;27.15;38.36621;101901.3;;;;-70
2023/07/07 19:36:18;;;;;;;;;;;;;;;26.92;38.83496;101902.2;;;;-72
2023/07/07 19:41:17;;;;;;;;;;;;;;;26.7;38.94434;101904.8;;;;-69
2023/07/07 19:46:20;;;;;;;;;;;;;;;26.48;39.48242;101903;;;;-71
2023/07/07 19:51:20;;;;;;;;;;;;;;;26.25;39.52148;101900.3;;;;-69
2023/07/07 19:56:15;;;;;;;;;;;;;;;26.03;39.53613;101907.6;;;;-70
2023/07/07 19:57:37;;;;;;;0.2;0;;;;;;;;;;;;;-71
2023/07/07 20:01:19;;;;;;;;;;;;;;;25.84;39.86719;101917.6;;;;-71
2023/07/07 20:06:18;;;;;;;;;;;;;;;25.63;40.12695;101920.8;;;;-69
2023/07/07 20:11:25;;;;;;;;;;;;;;;25.43;40.53809;101919.4;;;;-71
2023/07/07 20:16:21;;;;;;;;;;;;;;;25.24;40.7627;101922;;;;-74
2023/07/07 20:21:17;;;;;;;;;;;;;;;25.05;40.96582;101922.3;;;;-73
2023/07/07 20:26:17;;;;;;;;;;;;;;;24.85;41.22559;101924.6;;;;-73
2023/07/07 20:27:41;;;;;;;0.2;0;;;;;;;;;;;;;-73
2023/07/07 20:31:17;;;;;;;;;;;;;;;24.66;41.3584;101916.9;;;;-74
2023/07/07 20:36:17;;;;;;;;;;;;;;;24.48;41.59668;101921.1;;;;-77
2023/07/07 20:41:15;;;;;;;;;;;;;;;24.31;41.58008;101919.4;;;;-70
2023/07/07 20:46:22;;;;;;;;;;;;;;;24.15;42.09668;101922.6;;;;-70
2023/07/07 20:51:15;;;;;;;;;;;;;;;24.01;42.10547;101923;;;;-71
2023/07/07 20:56:19;;;;;;;;;;;;;;;23.85;42.34473;101925.1;;;;-71
2023/07/07 20:57:45;;;;;;;0.2;0.1;;;;;;;;;;;;;-70
2023/07/07 21:01:16;;;;;;;;;;;;;;;23.69;42.72168;101923.9;;;;-70
2023/07/07 21:06:17;;;;;;;;;;;;;;;23.55;43.01953;101927.9;;;;-70
2023/07/07 21:11:17;;;;;;;;;;;;;;;23.41;43.19043;101928.9;;;;-70
2023/07/07 21:16:20;;;;;;;;;;;;;;;23.28;43.24805;101931.6;;;;-71
2023/07/07 21:21:17;;;;;;;;;;;;;;;23.17;43.57129;101931.9;;;;-71
2023/07/07 21:26:19;;;;;;;;;;;;;;;23.08;43.72266;101939.4;;;;-70
2023/07/07 21:27:49;;;;;;;0.2;0.1;;;;;;;;;;;;;-68
2023/07/07 21:31:17;;;;;;;;;;;;;;;22.95;43.80176;101937.8;;;;-73
2023/07/07 21:36:25;;;;;;;;;;;;;;;22.88;44.02441;101938.3;;;;-70
2023/07/07 21:41:15;;;;;;;;;;;;;;;22.77;44.03711;101934.7;;;;-70
2023/07/07 21:46:17;;;;;;;;;;;;;;;22.64;44.3125;101932;;;;-71
2023/07/07 21:51:18;;;;;;;;;;;;;;;22.54;44.45117;101928.8;;;;-71
2023/07/07 21:56:18;;;;;;;;;;;;;;;22.48;44.66406;101926.1;;;;-68
2023/07/07 21:57:57;;;;;;;0.2;0.1;;;;;;;;;;;;;-69
2023/07/07 22:01:16;;;;;;;;;;;;;;;22.38;44.97559;101933.1;;;;-69
2023/07/07 22:06:16;;;;;;;;;;;;;;;22.3;44.92188;101932.1;;;;-70
2023/07/07 22:11:17;;;;;;;;;;;;;;;22.19;45.14063;101931.1;;;;-69
2023/07/07 22:16:17;;;;;;;;;;;;;;;22.15;45.42285;101927.7;;;;-68
2023/07/07 22:21:17;;;;;;;;;;;;;;;22.09;45.34863;101927.8;;;;-70
2023/07/07 22:26:18;;;;;;;;;;;;;;;22.03;45.43359;101923.3;;;;-71
2023/07/07 22:27:56;;;;;;;0.2;0.1;;;;;;;;;;;;;-70
2023/07/07 22:31:16;;;;;;;;;;;;;;;21.93;45.89453;101918.9;;;;-69
2023/07/07 22:36:19;;;;;;;;;;;;;;;21.89;46.03906;101923.1;;;;-68
2023/07/07 22:41:17;;;;;;;;;;;;;;;21.83;46.51465;101925.6;;;;-69
2023/07/07 22:46:22;;;;;;;;;;;;;;;21.76;46.2666;101925.1;;;;-70
2023/07/07 22:51:15;;;;;;;;;;;;;;;21.72;47.16797;101927.1;;;;-70
2023/07/07 22:56:19;;;;;;;;;;;;;;;21.67;47.68945;101923;;;;-69
2023/07/07 22:58:00;;;;;;;0.3;0.1;;;;;;;;;;;;;-68
2023/07/07 23:01:15;;;;;;;;;;;;;;;21.61;47.93652;101918;;;;-71
2023/07/07 23:06:16;;;;;;;;;;;;;;;21.56;47.95313;101914.3;;;;-70
2023/07/07 23:11:18;;;;;;;;;;;;;;;21.51;48.54297;101919;;;;-69
2023/07/07 23:16:17;;;;;;;;;;;;;;;21.45;48.0791;101919.8;;;;-69
2023/07/07 23:21:17;;;;;;;;;;;;;;;21.34;48.8916;101921.2;;;;-69
2023/07/07 23:26:19;;;;;;;;;;;;;;;21.28;49.13672;101923;;;;-70
2023/07/07 23:28:06;;;;;;;0.2;0.1;;;;;;;;;;;;;-70
2023/07/07 23:31:16;;;;;;;;;;;;;;;21.18;49.36621;101920.1;;;;-71
2023/07/07 23:36:20;;;;;;;;;;;;;;;21.14;50.02441;101919.6;;;;-69
2023/07/07 23:41:16;;;;;;;;;;;;;;;21.08;49.76563;101917.5;;;;-71
2023/07/07 23:46:18;;;;;;;;;;;;;;;20.98;50.53223;101915.1;;;;-69
2023/07/07 23:51:16;;;;;;;;;;;;;;;20.94;50.85938;101920.7;;;;-68
2023/07/07 23:56:21;;;;;;;;;;;;;;;20.88;50.40723;101914.1;;;;-71
2023/07/07 23:58:08;;;;;;;0.3;0.1;;;;;;;;;;;;;-69
